createdAt,value
2022-10-22T00:02:22.422Z,11.50
2022-10-22T00:04:50.338Z,11.50
2022-10-22T00:07:18.543Z,11.40
2022-10-22T00:09:45.185Z,11.40
2022-10-22T00:12:13.213Z,11.30
2022-10-22T00:14:41.693Z,11.30
2022-10-22T00:17:11.521Z,11.30
2022-10-22T00:19:39.184Z,11.30
2022-10-22T00:22:06.464Z,11.40
2022-10-22T00:24:34.505Z,11.40
2022-10-22T00:27:01.554Z,11.40
2022-10-22T00:29:28.578Z,11.50
2022-10-22T00:34:27.141Z,11.40
2022-10-22T00:36:54.251Z,11.40
2022-10-22T00:39:22.876Z,11.40
2022-10-22T00:41:51.177Z,11.50
2022-10-22T00:44:55.452Z,11.40
2022-10-22T00:47:23.618Z,11.50
2022-10-22T00:49:51.507Z,11.50
2022-10-22T00:52:18.290Z,11.40
2022-10-22T00:54:44.940Z,11.40
2022-10-22T00:57:11.580Z,11.30
2022-10-22T00:59:39.410Z,11.30
2022-10-22T01:02:05.991Z,11.40
2022-10-22T01:04:32.596Z,11.40
2022-10-22T01:06:59.221Z,11.30
2022-10-22T01:09:31.861Z,11.30
2022-10-22T01:12:12.568Z,11.30
2022-10-22T01:15:00.498Z,11.20
2022-10-22T01:18:08.413Z,11.20
2022-10-22T01:20:58.538Z,11.20
2022-10-22T01:23:52.297Z,11.20
2022-10-22T01:26:52.781Z,11.20
2022-10-22T01:29:25.862Z,11.10
2022-10-22T01:31:57.966Z,11.00
2022-10-22T01:34:25.724Z,11.10
2022-10-22T01:36:54.581Z,11.10
2022-10-22T01:39:23.203Z,11.10
2022-10-22T01:41:50.056Z,11.10
2022-10-22T01:44:28.816Z,11.00
2022-10-22T01:47:30.486Z,11.00
2022-10-22T01:50:25.072Z,11.10
2022-10-22T01:53:17.588Z,11.10
2022-10-22T01:56:15.538Z,11.10
2022-10-22T01:58:52.255Z,11.20
2022-10-22T02:01:25.076Z,11.20
2022-10-22T02:04:00.821Z,11.20
2022-10-22T02:06:30.349Z,11.20
2022-10-22T02:08:59.124Z,11.30
2022-10-22T02:11:26.275Z,11.30
2022-10-22T02:13:58.418Z,11.30
2022-10-22T02:16:44.759Z,11.30
2022-10-22T02:19:47.690Z,11.30
2022-10-22T02:22:14.301Z,11.30
2022-10-22T02:24:41.453Z,11.40
2022-10-22T02:27:40.204Z,11.30
2022-10-22T02:30:13.612Z,11.30
2022-10-22T02:32:46.964Z,11.30
2022-10-22T02:35:17.120Z,11.40
2022-10-22T02:37:44.924Z,11.40
2022-10-22T02:40:12.034Z,11.50
2022-10-22T02:42:40.064Z,11.80
2022-10-22T02:45:07.334Z,11.80
2022-10-22T02:47:34.053Z,12.10
2022-10-22T02:50:00.799Z,12.20
2022-10-22T02:52:27.396Z,12.10
2022-10-22T02:54:53.968Z,12.00
2022-10-22T02:59:52.179Z,11.90
2022-10-22T03:02:18.826Z,12.00
2022-10-22T03:04:45.719Z,12.00
2022-10-22T03:07:12.402Z,11.90
2022-10-22T03:09:39.038Z,12.00
2022-10-22T03:12:05.751Z,11.90
2022-10-22T03:14:32.341Z,12.00
2022-10-22T03:16:58.907Z,12.00
2022-10-22T03:19:25.551Z,11.90
2022-10-22T03:22:25.006Z,11.90
2022-10-22T03:24:55.089Z,11.80
2022-10-22T03:27:23.119Z,11.80
2022-10-22T03:29:52.163Z,11.80
2022-10-22T03:32:19.585Z,11.80
2022-10-22T03:34:47.336Z,11.80
2022-10-22T03:40:07.409Z,11.70
2022-10-22T03:42:34.258Z,11.70
2022-10-22T03:45:00.878Z,11.70
2022-10-22T03:47:27.943Z,11.80
2022-10-22T03:49:54.540Z,11.80
2022-10-22T03:52:21.228Z,11.80
2022-10-22T03:54:47.823Z,11.70
2022-10-22T03:57:14.692Z,11.80
2022-10-22T03:59:43.761Z,11.70
2022-10-22T04:02:11.554Z,11.80
2022-10-22T04:04:39.554Z,11.80
2022-10-22T04:07:07.609Z,11.90
2022-10-22T04:09:34.804Z,11.80
2022-10-22T04:12:01.465Z,11.80
2022-10-22T04:14:28.102Z,11.90
2022-10-22T04:16:54.806Z,11.80
2022-10-22T04:19:21.470Z,11.90
2022-10-22T04:21:48.117Z,11.90
2022-10-22T04:24:15.256Z,11.90
2022-10-22T04:26:42.301Z,11.80
2022-10-22T04:29:11.924Z,11.80
2022-10-22T04:31:41.779Z,11.80
2022-10-22T04:34:08.386Z,11.80
2022-10-22T04:36:35.022Z,11.70
2022-10-22T04:39:01.891Z,11.70
2022-10-22T04:41:39.282Z,11.70
2022-10-22T04:44:07.599Z,11.70
2022-10-22T04:46:36.821Z,11.70
2022-10-22T04:49:04.586Z,11.70
2022-10-22T04:51:32.184Z,11.60
2022-10-22T04:53:59.121Z,11.70
2022-10-22T04:56:28.902Z,11.70
2022-10-22T04:59:01.574Z,11.70
2022-10-22T05:01:31.280Z,11.70
2022-10-22T05:04:00.189Z,11.70
2022-10-22T05:06:28.121Z,11.70
2022-10-22T05:08:57.019Z,11.60
2022-10-22T05:11:28.173Z,11.60
2022-10-22T05:13:59.228Z,11.50
2022-10-22T05:16:27.854Z,11.60
2022-10-22T05:18:54.541Z,11.50
2022-10-22T05:21:21.825Z,11.50
2022-10-22T05:23:50.379Z,11.50
2022-10-22T05:26:21.341Z,11.50
2022-10-22T05:28:49.521Z,11.40
2022-10-22T05:31:17.460Z,11.40
2022-10-22T05:33:44.846Z,11.40
2022-10-22T05:36:18.929Z,11.30
2022-10-22T05:38:46.100Z,11.30
2022-10-22T05:41:16.174Z,11.20
2022-10-22T05:43:43.482Z,11.20
2022-10-22T05:46:22.272Z,11.20
2022-10-22T05:48:54.630Z,11.10
2022-10-22T05:51:22.331Z,11.10
2022-10-22T05:53:53.407Z,11.00
2022-10-22T05:56:20.519Z,11.00
2022-10-22T05:58:47.184Z,10.90
2022-10-22T06:01:15.529Z,10.90
2022-10-22T06:03:42.372Z,10.90
2022-10-22T06:06:37.847Z,11.00
2022-10-22T06:09:30.154Z,11.10
2022-10-22T06:11:57.636Z,11.00
2022-10-22T06:14:24.974Z,11.00
2022-10-22T06:16:52.001Z,10.90
2022-10-22T06:19:20.975Z,10.90
2022-10-22T06:21:48.177Z,10.90
2022-10-22T06:24:15.161Z,10.90
2022-10-22T06:26:41.917Z,10.90
2022-10-22T06:29:08.870Z,10.90
2022-10-22T06:31:38.685Z,10.90
2022-10-22T06:34:11.594Z,11.00
2022-10-22T06:36:42.306Z,11.10
2022-10-22T06:39:12.307Z,11.20
2022-10-22T06:41:38.884Z,11.30
2022-10-22T06:44:05.547Z,11.40
2022-10-22T06:46:32.206Z,11.40
2022-10-22T06:49:02.446Z,11.50
2022-10-22T06:51:29.730Z,11.40
2022-10-22T06:53:57.843Z,11.40
2022-10-22T06:56:26.450Z,11.40
2022-10-22T06:58:54.746Z,11.40
2022-10-22T07:01:24.822Z,11.30
2022-10-22T07:03:52.470Z,11.30
2022-10-22T07:06:20.505Z,11.30
2022-10-22T07:08:47.333Z,11.40
2022-10-22T07:11:24.244Z,11.40
2022-10-22T07:13:51.688Z,11.30
2022-10-22T07:16:18.619Z,11.40
2022-10-22T07:18:45.741Z,11.50
2022-10-22T07:21:14.310Z,11.60
2022-10-22T07:23:41.314Z,11.80
2022-10-22T07:26:08.780Z,11.80
2022-10-22T07:28:38.747Z,11.80
2022-10-22T07:31:06.298Z,11.90
2022-10-22T07:33:32.974Z,12.00
2022-10-22T07:36:01.291Z,12.10
2022-10-22T07:38:28.280Z,12.20
2022-10-22T07:40:55.334Z,12.30
2022-10-22T07:43:22.200Z,12.40
2022-10-22T07:45:48.864Z,12.50
2022-10-22T07:48:16.166Z,12.70
2022-10-22T07:53:14.367Z,13.00
2022-10-22T07:55:40.995Z,13.10
2022-10-22T07:58:07.605Z,13.20
2022-10-22T08:00:34.328Z,13.40
2022-10-22T08:03:00.877Z,13.50
2022-10-22T08:05:27.463Z,13.60
2022-10-22T08:07:54.049Z,13.70
2022-10-22T08:10:20.789Z,14.00
2022-10-22T08:12:47.433Z,14.20
2022-10-22T08:15:14.033Z,14.30
2022-10-22T08:17:40.878Z,14.50
2022-10-22T08:20:08.205Z,14.60
2022-10-22T08:22:34.931Z,14.70
2022-10-22T08:25:01.829Z,14.90
2022-10-22T08:27:28.421Z,15.00
2022-10-22T08:29:55.072Z,15.10
2022-10-22T08:32:21.830Z,15.10
2022-10-22T08:34:48.495Z,15.20
2022-10-22T08:37:16.978Z,15.20
2022-10-22T08:39:44.434Z,15.40
2022-10-22T08:42:42.051Z,15.40
2022-10-22T08:45:13.050Z,15.50
2022-10-22T08:47:54.470Z,15.60
2022-10-22T08:50:36.792Z,15.70
2022-10-22T08:53:07.822Z,15.80
2022-10-22T08:55:37.508Z,15.90
2022-10-22T08:58:06.956Z,15.90
2022-10-22T09:00:47.717Z,16.00
2022-10-22T09:03:32.963Z,16.10
2022-10-22T09:06:19.988Z,16.10
2022-10-22T09:08:47.523Z,16.30
2022-10-22T09:11:20.324Z,16.40
2022-10-22T09:13:47.804Z,16.40
2022-10-22T09:16:35.874Z,16.50
2022-10-22T09:19:29.608Z,16.60
2022-10-22T09:22:18.237Z,16.70
2022-10-22T09:24:52.382Z,16.70
2022-10-22T09:27:21.453Z,16.80
2022-10-22T09:29:48.448Z,16.80
2022-10-22T09:32:18.995Z,16.90
2022-10-22T09:34:46.727Z,17.00
2022-10-22T09:37:18.500Z,17.10
2022-10-22T09:39:48.477Z,17.20
2022-10-22T09:42:17.434Z,17.10
2022-10-22T09:44:47.705Z,17.20
2022-10-22T09:47:43.639Z,17.20
2022-10-22T09:50:28.810Z,17.30
2022-10-22T09:53:29.580Z,17.40
2022-10-22T09:55:59.336Z,17.40
2022-10-22T09:58:26.716Z,17.50
2022-10-22T10:01:01.541Z,17.40
2022-10-22T10:03:32.946Z,17.50
2022-10-22T10:06:04.804Z,17.50
2022-10-22T10:08:33.247Z,17.50
2022-10-22T10:11:16.874Z,17.60
2022-10-22T10:14:15.624Z,17.70
2022-10-22T10:17:04.910Z,17.90
2022-10-22T10:20:09.337Z,17.90
2022-10-22T10:22:48.515Z,18.00
2022-10-22T10:25:44.957Z,17.80
2022-10-22T10:28:17.382Z,17.80
2022-10-22T10:31:19.191Z,17.90
2022-10-22T10:33:51.130Z,18.10
2022-10-22T10:36:22.588Z,18.30
2022-10-22T10:39:04.107Z,18.80
2022-10-22T10:41:58.298Z,19.00
2022-10-22T10:44:37.501Z,19.10
2022-10-22T10:47:22.723Z,18.90
2022-10-22T10:49:54.396Z,18.80
2022-10-22T10:52:40.459Z,18.30
2022-10-22T10:55:18.097Z,18.20
2022-10-22T10:58:25.113Z,18.10
2022-10-22T11:01:05.189Z,18.10
2022-10-22T11:03:48.548Z,17.90
2022-10-22T11:06:21.597Z,18.00
2022-10-22T11:09:23.097Z,18.30
2022-10-22T11:11:58.108Z,18.60
2022-10-22T11:14:35.717Z,19.00
2022-10-22T11:17:11.207Z,19.00
2022-10-22T11:19:51.695Z,19.20
2022-10-22T11:22:44.424Z,19.20
2022-10-22T11:25:28.908Z,19.00
2022-10-22T11:28:11.291Z,18.80
2022-10-22T11:30:40.430Z,18.70
2022-10-22T11:33:12.375Z,18.60
2022-10-22T11:35:42.362Z,18.70
2022-10-22T11:38:15.128Z,18.90
2022-10-22T11:40:54.343Z,18.80
2022-10-22T11:43:51.211Z,18.80
2022-10-22T11:46:17.718Z,19.00
2022-10-22T11:48:44.817Z,19.40
2022-10-22T11:51:35.720Z,18.90
2022-10-22T11:54:23.554Z,19.00
2022-10-22T11:56:57.490Z,19.70
2022-10-22T11:59:52.345Z,20.40
2022-10-22T12:02:28.151Z,20.10
2022-10-22T12:05:17.945Z,19.80
2022-10-22T12:08:02.440Z,19.80
2022-10-22T12:10:49.364Z,19.90
2022-10-22T12:13:26.826Z,20.00
2022-10-22T12:15:58.118Z,19.60
2022-10-22T12:18:28.128Z,19.40
2022-10-22T12:20:55.433Z,19.40
2022-10-22T12:23:28.912Z,19.30
2022-10-22T12:25:55.644Z,19.70
2022-10-22T12:28:22.641Z,19.90
2022-10-22T12:30:49.321Z,19.20
2022-10-22T12:33:22.178Z,19.10
2022-10-22T12:35:52.823Z,19.00
2022-10-22T12:38:22.510Z,18.60
2022-10-22T12:40:51.359Z,18.60
2022-10-22T12:43:23.690Z,18.40
2022-10-22T12:45:50.597Z,18.30
2022-10-22T12:48:21.721Z,18.40
2022-10-22T12:50:54.218Z,18.40
2022-10-22T12:53:32.849Z,18.20
2022-10-22T12:56:10.531Z,18.20
2022-10-22T12:59:11.101Z,18.00
2022-10-22T13:01:40.138Z,17.90
2022-10-22T13:04:35.093Z,17.80
2022-10-22T13:07:18.540Z,17.80
2022-10-22T13:09:58.628Z,17.90
2022-10-22T13:12:27.613Z,18.00
2022-10-22T13:14:54.240Z,17.80
2022-10-22T13:17:38.397Z,18.00
2022-10-22T13:20:20.005Z,18.00
2022-10-22T13:23:02.636Z,18.00
2022-10-22T13:25:31.125Z,18.20
2022-10-22T13:28:20.780Z,18.20
2022-10-22T13:30:59.560Z,18.30
2022-10-22T13:33:41.009Z,18.20
2022-10-22T13:36:14.052Z,18.20
2022-10-22T13:38:41.269Z,18.50
2022-10-22T13:44:12.225Z,18.40
2022-10-22T13:46:42.549Z,18.30
2022-10-22T13:49:18.775Z,18.20
2022-10-22T13:51:46.083Z,18.10
2022-10-22T13:54:22.467Z,18.00
2022-10-22T13:56:49.197Z,18.00
2022-10-22T13:59:18.381Z,18.00
2022-10-22T14:01:48.179Z,17.90
2022-10-22T14:04:15.491Z,17.80
2022-10-22T14:06:42.194Z,17.90
2022-10-22T14:09:15.077Z,17.80
2022-10-22T14:11:41.746Z,17.90
2022-10-22T14:14:09.081Z,18.00
2022-10-22T14:16:37.609Z,18.20
2022-10-22T14:19:07.179Z,18.40
2022-10-22T14:21:36.850Z,18.40
2022-10-22T14:24:05.994Z,18.20
2022-10-22T14:26:35.138Z,18.30
2022-10-22T14:29:10.641Z,18.20
2022-10-22T14:31:44.245Z,18.00
2022-10-22T14:34:13.343Z,17.80
2022-10-22T14:36:40.073Z,17.80
2022-10-22T14:39:06.714Z,17.60
2022-10-22T14:41:33.678Z,17.50
2022-10-22T14:44:00.583Z,17.50
2022-10-22T14:46:27.253Z,17.50
2022-10-22T14:48:53.837Z,17.40
2022-10-22T14:51:21.799Z,17.40
2022-10-22T14:53:49.037Z,17.40
2022-10-22T14:56:21.069Z,17.40
2022-10-22T14:58:48.254Z,17.30
2022-10-22T15:01:14.883Z,17.20
2022-10-22T15:03:41.517Z,17.20
2022-10-22T15:06:08.409Z,17.10
2022-10-22T15:08:35.111Z,17.10
2022-10-22T15:11:07.406Z,17.10
2022-10-22T15:13:35.108Z,17.00
2022-10-22T15:16:08.592Z,17.00
2022-10-22T15:18:35.433Z,16.90
2022-10-22T15:21:04.731Z,16.90
2022-10-22T15:23:32.007Z,16.90
2022-10-22T15:25:58.933Z,16.80
2022-10-22T15:28:26.032Z,16.80
2022-10-22T15:31:00.159Z,16.70
2022-10-22T15:33:29.268Z,16.70
2022-10-22T15:35:57.309Z,16.60
2022-10-22T15:41:07.715Z,16.60
2022-10-22T15:43:35.218Z,16.60
2022-10-22T15:46:20.060Z,16.50
2022-10-22T15:48:46.905Z,16.40
2022-10-22T15:51:16.471Z,16.20
2022-10-22T15:53:43.867Z,16.00
2022-10-22T15:56:14.087Z,16.00
2022-10-22T15:58:40.913Z,15.90
2022-10-22T16:01:20.411Z,15.80
2022-10-22T16:03:47.115Z,15.80
2022-10-22T16:06:13.723Z,15.70
2022-10-22T16:08:40.509Z,15.70
2022-10-22T16:11:07.185Z,15.60
2022-10-22T16:13:35.979Z,15.70
2022-10-22T16:16:05.922Z,15.60
2022-10-22T16:18:32.492Z,15.60
2022-10-22T16:20:59.060Z,15.60
2022-10-22T16:23:25.677Z,15.50
2022-10-22T16:25:52.438Z,15.50
2022-10-22T16:28:19.146Z,15.50
2022-10-22T16:30:45.899Z,15.50
2022-10-22T16:33:12.594Z,15.50
2022-10-22T16:35:42.618Z,15.50
2022-10-22T16:38:10.621Z,15.50
2022-10-22T16:40:37.532Z,15.50
2022-10-22T16:43:05.723Z,15.40
2022-10-22T16:45:32.344Z,15.40
2022-10-22T16:47:58.907Z,15.50
2022-10-22T16:50:25.554Z,15.40
2022-10-22T16:52:52.156Z,15.40
2022-10-22T16:55:18.844Z,15.40
2022-10-22T16:57:51.617Z,15.30
2022-10-22T17:00:18.614Z,15.30
2022-10-22T17:02:45.245Z,15.30
2022-10-22T17:05:11.936Z,15.20
2022-10-22T17:07:38.517Z,15.10
2022-10-22T17:10:05.681Z,15.10
2022-10-22T17:12:35.203Z,15.00
2022-10-22T17:15:05.518Z,15.00
2022-10-22T17:17:32.863Z,14.90
2022-10-22T17:19:59.673Z,14.90
2022-10-22T17:22:26.925Z,14.80
2022-10-22T17:25:19.281Z,14.80
2022-10-22T17:27:45.859Z,14.70
2022-10-22T17:30:16.424Z,14.70
2022-10-22T17:32:43.102Z,14.50
2022-10-22T17:35:09.863Z,14.50
2022-10-22T17:37:37.035Z,14.40
2022-10-22T17:40:07.182Z,14.20
2022-10-22T17:42:34.056Z,14.20
2022-10-22T17:45:00.729Z,14.20
2022-10-22T17:47:27.517Z,14.10
2022-10-22T17:49:54.117Z,14.10
2022-10-22T17:52:20.665Z,14.00
2022-10-22T17:54:49.662Z,14.00
2022-10-22T17:57:16.551Z,13.90
2022-10-22T17:59:43.157Z,13.80
2022-10-22T18:02:15.673Z,13.90
2022-10-22T18:04:42.589Z,13.80
2022-10-22T18:07:09.275Z,13.80
2022-10-22T18:09:36.285Z,13.70
2022-10-22T18:12:02.916Z,13.70
2022-10-22T18:14:29.883Z,13.60
2022-10-22T18:16:56.458Z,13.50
2022-10-22T18:19:23.233Z,13.40
2022-10-22T18:21:50.000Z,13.40
2022-10-22T18:24:17.357Z,13.30
2022-10-22T18:26:44.311Z,13.20
2022-10-22T18:29:14.727Z,13.30
2022-10-22T18:31:41.329Z,13.30
2022-10-22T18:34:08.052Z,13.30
2022-10-22T18:36:34.810Z,13.30
2022-10-22T18:39:03.633Z,13.30
2022-10-22T18:41:31.687Z,13.20
2022-10-22T18:44:00.939Z,13.10
2022-10-22T18:46:28.382Z,13.00
2022-10-22T18:48:56.157Z,13.00
2022-10-22T18:51:24.227Z,12.90
2022-10-22T18:54:04.691Z,12.80
2022-10-22T18:56:40.562Z,12.80
2022-10-22T18:59:13.121Z,12.70
2022-10-22T19:01:39.673Z,12.70
2022-10-22T19:04:06.296Z,12.60
2022-10-22T19:06:34.435Z,12.60
2022-10-22T19:09:04.426Z,12.70
2022-10-22T19:11:31.833Z,12.60
2022-10-22T19:13:58.425Z,12.50
2022-10-22T19:16:26.669Z,12.40
2022-10-22T19:18:59.659Z,12.40
2022-10-22T19:21:26.321Z,12.30
2022-10-22T19:23:59.141Z,12.30
2022-10-22T19:26:27.509Z,12.30
2022-10-22T19:28:55.374Z,12.20
2022-10-22T19:31:23.651Z,12.30
2022-10-22T19:33:51.823Z,12.30
2022-10-22T19:36:19.441Z,12.20
2022-10-22T19:38:47.968Z,12.20
2022-10-22T19:41:17.283Z,12.10
2022-10-22T19:43:45.337Z,12.10
2022-10-22T19:46:13.618Z,12.10
2022-10-22T19:48:40.654Z,12.10
2022-10-22T19:51:10.079Z,12.10
2022-10-22T19:53:38.727Z,12.00
2022-10-22T19:56:07.225Z,12.10
2022-10-22T19:58:34.576Z,12.10
2022-10-22T20:01:05.490Z,12.10
2022-10-22T20:03:32.884Z,12.10
2022-10-22T20:05:59.782Z,12.20
2022-10-22T20:08:26.377Z,12.30
2022-10-22T20:10:52.982Z,12.30
2022-10-22T20:13:19.847Z,12.40
2022-10-22T20:15:52.430Z,12.40
2022-10-22T20:18:20.119Z,12.50
2022-10-22T20:20:46.703Z,12.40
2022-10-22T20:23:13.257Z,12.30
2022-10-22T20:25:44.536Z,12.20
2022-10-22T20:28:13.153Z,12.00
2022-10-22T20:30:44.319Z,12.00
2022-10-22T20:33:11.398Z,11.90
2022-10-22T20:35:38.463Z,11.90
2022-10-22T20:38:07.103Z,11.90
2022-10-22T20:40:33.847Z,11.90
2022-10-22T20:43:01.365Z,11.90
2022-10-22T20:45:28.598Z,11.90
2022-10-22T20:48:02.087Z,11.90
2022-10-22T20:50:32.190Z,12.00
2022-10-22T20:52:59.605Z,12.00
2022-10-22T20:55:27.059Z,11.90
2022-10-22T20:57:53.919Z,11.90
2022-10-22T21:00:20.960Z,11.80
2022-10-22T21:02:47.616Z,11.80
2022-10-22T21:05:14.225Z,11.70
2022-10-22T21:07:41.083Z,11.70
2022-10-22T21:10:08.306Z,11.70
2022-10-22T21:12:34.990Z,11.60
2022-10-22T21:15:01.712Z,11.60
2022-10-22T21:17:28.264Z,11.50
2022-10-22T21:19:54.865Z,11.40
2022-10-22T21:22:21.434Z,11.30
2022-10-22T21:24:48.168Z,11.30
2022-10-22T21:27:14.781Z,11.30
2022-10-22T21:29:41.346Z,11.30
2022-10-22T21:32:07.935Z,11.40
2022-10-22T21:34:38.187Z,11.30
2022-10-22T21:37:05.742Z,11.40
2022-10-22T21:39:32.309Z,11.30
2022-10-22T21:41:58.876Z,11.20
2022-10-22T21:44:25.462Z,11.20
2022-10-22T21:46:52.161Z,11.20
2022-10-22T21:49:18.821Z,11.20
2022-10-22T21:51:45.472Z,11.20
2022-10-22T21:54:12.606Z,11.20
2022-10-22T21:56:39.517Z,11.10
2022-10-22T21:59:07.502Z,11.10
2022-10-22T22:01:34.963Z,11.00
2022-10-22T22:04:02.034Z,11.00
2022-10-22T22:06:33.132Z,10.90
2022-10-22T22:09:00.803Z,10.90
2022-10-22T22:11:28.673Z,10.90
2022-10-22T22:13:57.197Z,10.80
2022-10-22T22:16:28.425Z,10.80
2022-10-22T22:18:59.922Z,10.70
2022-10-22T22:21:27.211Z,10.70
2022-10-22T22:23:54.217Z,10.70
2022-10-22T22:26:25.496Z,10.60
2022-10-22T22:28:55.883Z,10.60
2022-10-22T22:31:26.364Z,10.50
2022-10-22T22:34:08.496Z,10.50
2022-10-22T22:36:40.775Z,10.50
2022-10-22T22:39:10.373Z,10.50
2022-10-22T22:41:37.137Z,10.40
2022-10-22T22:44:03.863Z,10.40
2022-10-22T22:46:30.461Z,10.40
2022-10-22T22:48:57.141Z,10.40
2022-10-22T22:51:24.065Z,10.40
2022-10-22T22:53:50.902Z,10.40
2022-10-22T22:56:23.323Z,10.40
2022-10-22T22:58:50.270Z,10.40
2022-10-22T23:01:23.959Z,10.40
2022-10-22T23:04:16.253Z,10.40
2022-10-22T23:06:43.042Z,10.30
2022-10-22T23:09:11.697Z,10.30
2022-10-22T23:11:40.013Z,10.30
2022-10-22T23:14:08.390Z,10.30
2022-10-22T23:16:36.978Z,10.30
2022-10-22T23:19:05.118Z,10.20
2022-10-22T23:21:34.544Z,10.20
2022-10-22T23:24:03.701Z,10.20
2022-10-22T23:26:34.015Z,10.20
2022-10-22T23:29:05.801Z,10.20
2022-10-22T23:31:32.722Z,10.10
2022-10-22T23:33:59.429Z,10.10
2022-10-22T23:36:26.818Z,10.20
2022-10-22T23:38:54.157Z,10.20
2022-10-22T23:41:21.008Z,10.20
2022-10-22T23:43:47.626Z,10.20
2022-10-22T23:46:14.541Z,10.10
2022-10-22T23:48:41.651Z,10.20
2022-10-22T23:51:11.166Z,10.20
2022-10-22T23:53:38.343Z,10.20
2022-10-22T23:56:13.894Z,10.20
2022-10-22T23:58:41.017Z,10.20
